Time;durP1;ratioP1;P1;durP2;ratioP2;P2;SDS_P1;SDS_P2;PMS_P1;PMS_P2;Temp;Humidity;BMP_temperature;BMP_pressure;BME280_temperature;BME280_humidity;BME280_pressure;Samples;Min_cycle;Max_cycle;Signal;HPM_P1;HPM_P2
2023/12/23 00:00:09;;;;;;;3.10;0.50;;;;;;;;;;5013090;28;20692;-73
2023/12/23 00:02:35;;;;;;;1.42;0.40;;;;;;;;;;4995706;28;20460;-72
2023/12/23 00:05:00;;;;;;;1.33;0.40;;;;;;;;;;5014689;28;20061;-72
2023/12/23 00:07:25;;;;;;;3.63;0.90;;;;;;;;;;4999096;28;20120;-72
2023/12/23 00:09:50;;;;;;;2.25;0.32;;;;;;;;;;5017409;28;20063;-73
2023/12/23 00:12:16;;;;;;;0.30;0.30;;;;;;;;;;5015558;28;20510;-72
2023/12/23 00:14:41;;;;;;;0.80;0.40;;;;;;;;;;5013924;28;20502;-73
2023/12/23 00:17:06;;;;;;;2.15;0.70;;;;;;;;;;5014007;28;20038;-72
2023/12/23 00:19:32;;;;;;;2.67;0.70;;;;;;;;;;5015048;28;20041;-73
2023/12/23 00:21:57;;;;;;;3.17;0.60;;;;;;;;;;5005283;28;20036;-72
2023/12/23 00:24:24;;;;;;;1.17;0.70;;;;;;;;;;4999633;28;20041;-72
2023/12/23 00:26:50;;;;;;;2.30;0.47;;;;;;;;;;5002915;28;20053;-74
2023/12/23 00:29:15;;;;;;;2.15;0.55;;;;;;;;;;5016785;28;20050;-73
2023/12/23 00:31:41;;;;;;;1.80;0.60;;;;;;;;;;5014544;28;20099;-73
2023/12/23 00:34:06;;;;;;;1.85;0.32;;;;;;;;;;5014146;28;20610;-72
2023/12/23 00:36:31;;;;;;;2.33;0.40;;;;;;;;;;5000421;28;20053;-72
2023/12/23 00:38:57;;;;;;;0.38;0.28;;;;;;;;;;5015823;28;20037;-72
2023/12/23 00:41:22;;;;;;;1.33;0.30;;;;;;;;;;5008300;28;20414;-73
2023/12/23 00:43:48;;;;;;;1.70;0.30;;;;;;;;;;5007286;28;20068;-72
2023/12/23 00:46:13;;;;;;;1.02;0.20;;;;;;;;;;5013742;28;20129;-72
2023/12/23 00:48:39;;;;;;;1.10;0.20;;;;;;;;;;5016192;28;20135;-72
2023/12/23 00:51:04;;;;;;;0.28;0.20;;;;;;;;;;4990213;28;20026;-72
2023/12/23 00:53:30;;;;;;;2.03;0.43;;;;;;;;;;5010041;28;20521;-71
2023/12/23 00:55:55;;;;;;;0.98;0.40;;;;;;;;;;5014415;28;20030;-72
2023/12/23 00:58:21;;;;;;;0.55;0.20;;;;;;;;;;5016343;28;20433;-71
2023/12/23 01:00:46;;;;;;;1.90;0.40;;;;;;;;;;5016754;28;20038;-73
2023/12/23 01:03:12;;;;;;;0.30;0.20;;;;;;;;;;5018962;28;20516;-74
2023/12/23 01:05:37;;;;;;;0.90;0.30;;;;;;;;;;5003591;28;20129;-73
2023/12/23 01:08:03;;;;;;;0.28;0.28;;;;;;;;;;5020856;28;20045;-74
2023/12/23 01:10:28;;;;;;;0.82;0.32;;;;;;;;;;5017395;28;20034;-73
2023/12/23 01:12:54;;;;;;;0.85;0.40;;;;;;;;;;5018028;28;20488;-71
2023/12/23 01:15:19;;;;;;;0.43;0.32;;;;;;;;;;5017134;28;20026;-72
2023/12/23 01:17:45;;;;;;;0.85;0.30;;;;;;;;;;5022754;28;20041;-73
2023/12/23 01:20:11;;;;;;;0.22;0.22;;;;;;;;;;5007109;28;20117;-71
2023/12/23 01:22:36;;;;;;;0.30;0.30;;;;;;;;;;5016113;28;20033;-73
2023/12/23 01:25:02;;;;;;;0.40;0.13;;;;;;;;;;5019743;28;20597;-72
2023/12/23 01:27:28;;;;;;;2.38;0.30;;;;;;;;;;5020458;28;20048;-71
2023/12/23 01:29:53;;;;;;;0.20;0.20;;;;;;;;;;5021484;28;20033;-72
2023/12/23 01:32:19;;;;;;;0.52;0.22;;;;;;;;;;5017299;28;20041;-74
2023/12/23 01:34:44;;;;;;;1.02;0.30;;;;;;;;;;5015952;28;20076;-72
2023/12/23 01:37:09;;;;;;;1.52;0.40;;;;;;;;;;5017578;28;20075;-73
2023/12/23 01:39:35;;;;;;;2.55;0.47;;;;;;;;;;5003814;28;20219;-73
2023/12/23 01:42:00;;;;;;;2.15;0.75;;;;;;;;;;5018861;28;20030;-73
2023/12/23 01:44:26;;;;;;;0.80;0.30;;;;;;;;;;5014257;28;20460;-73
2023/12/23 01:46:53;;;;;;;1.08;0.40;;;;;;;;;;4996598;28;20040;-73
2023/12/23 01:49:20;;;;;;;2.30;0.60;;;;;;;;;;5017392;28;20044;-72
2023/12/23 01:51:46;;;;;;;1.52;0.40;;;;;;;;;;5013415;28;20531;-73
2023/12/23 01:54:12;;;;;;;1.52;0.25;;;;;;;;;;5022821;28;20155;-73
2023/12/23 01:56:41;;;;;;;2.08;0.38;;;;;;;;;;5015632;28;20557;-73
2023/12/23 01:59:06;;;;;;;2.70;0.50;;;;;;;;;;5021527;28;20588;-72
2023/12/23 02:01:32;;;;;;;2.72;0.60;;;;;;;;;;5006719;28;20033;-72
2023/12/23 02:03:58;;;;;;;2.88;0.90;;;;;;;;;;5021871;28;20103;-73
2023/12/23 02:06:23;;;;;;;3.00;0.50;;;;;;;;;;5020915;28;20042;-72
2023/12/23 02:08:49;;;;;;;3.33;1.77;;;;;;;;;;5019551;28;20052;-72
2023/12/23 02:11:25;;;;;;;0.60;0.30;;;;;;;;;;5021057;28;20426;-73
2023/12/23 02:14:06;;;;;;;1.88;0.50;;;;;;;;;;5019737;28;20046;-73
2023/12/23 02:16:31;;;;;;;3.25;0.45;;;;;;;;;;4978149;28;20054;-72
2023/12/23 02:18:57;;;;;;;1.92;0.82;;;;;;;;;;5020382;28;20038;-73
2023/12/23 02:21:23;;;;;;;1.38;0.55;;;;;;;;;;5017176;28;20044;-73
2023/12/23 02:23:48;;;;;;;5.13;0.77;;;;;;;;;;5017949;28;20059;-73
2023/12/23 02:26:17;;;;;;;1.48;0.30;;;;;;;;;;5017767;28;20036;-73
2023/12/23 02:28:43;;;;;;;3.15;0.82;;;;;;;;;;5005674;28;20037;-74
2023/12/23 02:31:09;;;;;;;2.35;0.43;;;;;;;;;;5015519;28;20037;-73
2023/12/23 02:33:35;;;;;;;3.03;0.47;;;;;;;;;;5008492;28;20079;-75
2023/12/23 02:36:01;;;;;;;1.88;0.47;;;;;;;;;;5016834;28;20465;-73
2023/12/23 02:38:26;;;;;;;3.92;0.47;;;;;;;;;;5000615;28;20075;-73
2023/12/23 02:40:51;;;;;;;1.45;0.68;;;;;;;;;;5021879;28;20584;-73
2023/12/23 02:43:17;;;;;;;3.78;1.50;;;;;;;;;;5011720;28;20502;-73
2023/12/23 02:45:42;;;;;;;2.85;0.60;;;;;;;;;;5015726;28;20060;-72
2023/12/23 02:48:07;;;;;;;7.75;1.08;;;;;;;;;;5018618;28;20726;-73
2023/12/23 02:50:33;;;;;;;3.30;0.50;;;;;;;;;;5017264;28;20030;-73
2023/12/23 02:53:01;;;;;;;1.75;0.35;;;;;;;;;;5019813;28;20383;-73
2023/12/23 02:55:27;;;;;;;5.55;0.70;;;;;;;;;;5018310;28;20038;-73
2023/12/23 02:57:52;;;;;;;5.05;0.95;;;;;;;;;;5006588;28;20037;-73
2023/12/23 03:00:17;;;;;;;3.88;0.57;;;;;;;;;;5002630;28;20090;-72
2023/12/23 03:02:43;;;;;;;2.53;0.65;;;;;;;;;;5018449;28;20064;-72
2023/12/23 03:05:08;;;;;;;1.58;0.40;;;;;;;;;;5013279;28;20045;-72
2023/12/23 03:07:33;;;;;;;0.20;0.20;;;;;;;;;;5018410;28;20038;-73
2023/12/23 03:09:59;;;;;;;2.13;0.60;;;;;;;;;;5020200;28;20165;-72
2023/12/23 03:12:24;;;;;;;1.73;0.55;;;;;;;;;;5009485;28;20030;-73
2023/12/23 03:14:49;;;;;;;1.58;0.50;;;;;;;;;;5020077;28;20040;-72
2023/12/23 03:17:15;;;;;;;3.45;0.60;;;;;;;;;;5016126;28;20375;-72
2023/12/23 03:19:41;;;;;;;6.63;0.70;;;;;;;;;;5018186;28;20127;-71
2023/12/23 03:22:06;;;;;;;1.30;0.40;;;;;;;;;;5016197;28;20029;-71
2023/12/23 03:24:32;;;;;;;2.05;0.60;;;;;;;;;;5017456;28;20064;-73
2023/12/23 03:26:57;;;;;;;1.60;0.77;;;;;;;;;;5011447;28;20029;-73
2023/12/23 03:29:22;;;;;;;3.63;0.70;;;;;;;;;;5020292;28;20044;-73
2023/12/23 03:31:48;;;;;;;2.10;0.55;;;;;;;;;;5017468;28;20387;-72
2023/12/23 03:34:13;;;;;;;11.38;1.10;;;;;;;;;;5014167;28;20037;-72
2023/12/23 03:36:38;;;;;;;4.60;0.50;;;;;;;;;;5017748;28;20045;-74
2023/12/23 03:39:04;;;;;;;2.08;0.38;;;;;;;;;;5017556;28;20025;-73
2023/12/23 03:41:29;;;;;;;7.10;0.77;;;;;;;;;;5005238;28;20119;-73
2023/12/23 03:43:55;;;;;;;3.88;0.73;;;;;;;;;;5021354;28;20116;-73
2023/12/23 03:46:20;;;;;;;6.47;0.60;;;;;;;;;;5014720;28;20075;-71
2023/12/23 03:48:49;;;;;;;3.30;0.50;;;;;;;;;;5017708;28;20067;-70
2023/12/23 03:51:15;;;;;;;1.95;0.82;;;;;;;;;;5013849;28;20445;-71
2023/12/23 03:53:41;;;;;;;4.85;0.63;;;;;;;;;;4998740;28;20042;-72
2023/12/23 03:56:06;;;;;;;2.63;0.40;;;;;;;;;;5002699;28;20035;-73
2023/12/23 03:58:32;;;;;;;5.53;0.77;;;;;;;;;;4997552;28;20160;-71
2023/12/23 04:00:57;;;;;;;1.75;0.52;;;;;;;;;;5014133;28;20084;-73
2023/12/23 04:03:22;;;;;;;2.75;0.77;;;;;;;;;;5016792;28;20102;-73
2023/12/23 04:05:48;;;;;;;1.60;0.40;;;;;;;;;;5012488;28;20053;-71
2023/12/23 04:08:13;;;;;;;4.85;0.70;;;;;;;;;;5001029;28;20080;-72
2023/12/23 04:10:38;;;;;;;2.45;0.43;;;;;;;;;;5002505;28;20057;-72
2023/12/23 04:13:04;;;;;;;4.95;0.65;;;;;;;;;;5016357;28;20040;-72
2023/12/23 04:15:29;;;;;;;4.22;0.88;;;;;;;;;;5014234;28;20453;-72
2023/12/23 04:17:54;;;;;;;5.68;0.70;;;;;;;;;;5015407;28;20456;-73
2023/12/23 04:20:20;;;;;;;3.13;0.63;;;;;;;;;;5017668;28;20038;-73
2023/12/23 04:22:47;;;;;;;2.35;0.55;;;;;;;;;;5013911;28;20091;-72
2023/12/23 04:25:13;;;;;;;1.98;0.60;;;;;;;;;;4968899;28;21023;-73
2023/12/23 04:27:39;;;;;;;2.50;0.60;;;;;;;;;;5013661;28;20403;-73
2023/12/23 04:30:05;;;;;;;1.27;0.40;;;;;;;;;;5005257;28;20067;-72
2023/12/23 04:32:30;;;;;;;2.75;0.47;;;;;;;;;;5014171;28;20046;-72
2023/12/23 04:34:55;;;;;;;0.35;0.20;;;;;;;;;;5017108;28;20036;-74
2023/12/23 04:37:21;;;;;;;1.88;0.50;;;;;;;;;;5003510;28;20176;-72
2023/12/23 04:39:46;;;;;;;1.73;0.30;;;;;;;;;;5012253;28;20065;-73
2023/12/23 04:42:11;;;;;;;2.65;0.50;;;;;;;;;;5018479;28;20529;-73
2023/12/23 04:44:37;;;;;;;1.92;0.30;;;;;;;;;;5018116;28;20264;-73
2023/12/23 04:47:02;;;;;;;1.95;0.50;;;;;;;;;;5016101;28;20044;-73
2023/12/23 04:49:28;;;;;;;1.70;0.32;;;;;;;;;;5015894;28;20042;-72
2023/12/23 04:51:53;;;;;;;1.13;0.40;;;;;;;;;;5008968;28;20034;-72
2023/12/23 04:54:18;;;;;;;1.95;0.40;;;;;;;;;;5018239;28;20042;-73
2023/12/23 04:56:44;;;;;;;0.63;0.32;;;;;;;;;;5020168;28;20044;-73
2023/12/23 04:59:09;;;;;;;3.45;0.38;;;;;;;;;;5022157;28;20033;-74
2023/12/23 05:01:35;;;;;;;1.30;0.50;;;;;;;;;;5016230;28;20116;-73
2023/12/23 05:04:00;;;;;;;0.70;0.28;;;;;;;;;;5022185;28;20038;-72
2023/12/23 05:06:25;;;;;;;0.50;0.25;;;;;;;;;;5004865;28;20072;-73
2023/12/23 05:08:51;;;;;;;1.30;0.40;;;;;;;;;;5020678;28;20195;-73
2023/12/23 05:11:16;;;;;;;1.85;0.45;;;;;;;;;;5020256;28;20072;-73
2023/12/23 05:13:42;;;;;;;4.43;1.23;;;;;;;;;;5018472;28;20033;-72
2023/12/23 05:16:08;;;;;;;2.53;0.50;;;;;;;;;;5015752;28;20045;-73
2023/12/23 05:18:33;;;;;;;0.95;0.30;;;;;;;;;;5017098;28;20473;-72
2023/12/23 05:20:59;;;;;;;2.35;0.47;;;;;;;;;;5006943;28;20805;-73
2023/12/23 05:23:24;;;;;;;2.28;0.50;;;;;;;;;;5002581;28;20044;-73
2023/12/23 05:25:50;;;;;;;1.08;0.25;;;;;;;;;;5019270;28;20044;-73
2023/12/23 05:28:16;;;;;;;2.63;0.40;;;;;;;;;;5017350;28;20045;-73
2023/12/23 05:30:42;;;;;;;2.20;0.45;;;;;;;;;;5017287;28;20425;-72
2023/12/23 05:33:07;;;;;;;1.90;0.30;;;;;;;;;;5023692;28;20081;-72
2023/12/23 05:35:32;;;;;;;1.90;0.50;;;;;;;;;;5006178;28;20034;-72
2023/12/23 05:37:58;;;;;;;0.47;0.35;;;;;;;;;;5021050;28;20029;-71
2023/12/23 05:40:23;;;;;;;1.42;0.40;;;;;;;;;;5019413;28;20486;-72
2023/12/23 05:42:48;;;;;;;2.17;0.57;;;;;;;;;;5008694;28;20037;-73
2023/12/23 05:45:14;;;;;;;3.20;0.40;;;;;;;;;;5009014;28;20160;-73
2023/12/23 05:47:40;;;;;;;2.15;0.65;;;;;;;;;;5017030;28;20182;-72
2023/12/23 05:50:06;;;;;;;1.15;0.40;;;;;;;;;;5005505;28;20061;-73
2023/12/23 05:52:31;;;;;;;0.88;0.25;;;;;;;;;;5012050;28;20103;-72
2023/12/23 05:54:57;;;;;;;1.83;0.40;;;;;;;;;;5015484;28;20034;-71
2023/12/23 05:57:22;;;;;;;0.25;0.20;;;;;;;;;;5016404;28;20099;-72
2023/12/23 05:59:48;;;;;;;1.27;0.28;;;;;;;;;;5019503;28;20049;-72
2023/12/23 06:02:13;;;;;;;1.65;0.20;;;;;;;;;;5020362;28;20493;-72
2023/12/23 06:04:39;;;;;;;1.33;0.20;;;;;;;;;;5007967;28;20030;-72
2023/12/23 06:07:04;;;;;;;0.45;0.30;;;;;;;;;;5020426;28;20530;-72
2023/12/23 06:09:29;;;;;;;0.20;0.20;;;;;;;;;;5008862;28;20044;-70
2023/12/23 06:11:55;;;;;;;1.85;0.30;;;;;;;;;;5008308;28;20044;-72
2023/12/23 06:14:20;;;;;;;0.43;0.43;;;;;;;;;;5020084;28;20538;-72
2023/12/23 06:16:47;;;;;;;0.20;0.20;;;;;;;;;;5014469;28;20033;-71
2023/12/23 06:19:12;;;;;;;2.15;0.40;;;;;;;;;;5002638;28;20049;-72
2023/12/23 06:21:45;;;;;;;0.52;0.30;;;;;;;;;;5014964;28;20502;-72
2023/12/23 06:24:10;;;;;;;0.40;0.10;;;;;;;;;;5014593;28;20033;-72
2023/12/23 06:26:36;;;;;;;0.57;0.30;;;;;;;;;;5014739;28;20930;-73
2023/12/23 06:29:01;;;;;;;0.10;0.10;;;;;;;;;;5012814;28;20032;-72
2023/12/23 06:31:26;;;;;;;0.30;0.30;;;;;;;;;;5008551;28;20053;-72
2023/12/23 06:33:52;;;;;;;0.98;0.40;;;;;;;;;;5012599;28;20095;-73
2023/12/23 06:36:17;;;;;;;0.80;0.20;;;;;;;;;;5015282;28;20543;-73
2023/12/23 06:38:42;;;;;;;0.20;0.20;;;;;;;;;;5014710;28;20438;-72
2023/12/23 06:41:08;;;;;;;0.50;0.20;;;;;;;;;;5009949;28;20052;-73
2023/12/23 06:43:33;;;;;;;0.43;0.20;;;;;;;;;;5000831;28;20046;-73
2023/12/23 06:45:59;;;;;;;0.15;0.15;;;;;;;;;;5004737;28;20075;-74
2023/12/23 06:48:25;;;;;;;0.40;0.30;;;;;;;;;;5016689;28;20140;-72
2023/12/23 06:50:50;;;;;;;0.30;0.30;;;;;;;;;;5011563;28;20116;-73
2023/12/23 06:53:15;;;;;;;0.75;0.30;;;;;;;;;;5015401;28;20041;-73
2023/12/23 06:55:42;;;;;;;0.45;0.30;;;;;;;;;;5016151;28;20053;-73
2023/12/23 06:58:08;;;;;;;0.10;0.10;;;;;;;;;;5016033;28;20030;-71
2023/12/23 07:00:33;;;;;;;0.17;0.17;;;;;;;;;;5003323;28;20103;-72
2023/12/23 07:02:58;;;;;;;0.38;0.22;;;;;;;;;;5012934;28;20518;-73
2023/12/23 07:05:24;;;;;;;0.10;0.10;;;;;;;;;;5015491;28;20677;-73
2023/12/23 07:07:49;;;;;;;0.10;0.10;;;;;;;;;;5018110;28;20049;-74
2023/12/23 07:10:15;;;;;;;0.40;0.28;;;;;;;;;;5003009;28;20040;-73
2023/12/23 07:12:41;;;;;;;0.43;0.30;;;;;;;;;;5008976;28;20100;-71
2023/12/23 07:15:08;;;;;;;0.40;0.15;;;;;;;;;;5005071;28;20060;-72
2023/12/23 07:17:33;;;;;;;0.20;0.20;;;;;;;;;;5015318;28;20033;-72
2023/12/23 07:19:59;;;;;;;0.20;0.20;;;;;;;;;;5017050;28;20092;-72
2023/12/23 07:22:24;;;;;;;0.47;0.30;;;;;;;;;;5013661;28;20034;-75
2023/12/23 07:24:50;;;;;;;0.10;0.10;;;;;;;;;;5012755;28;20117;-76
2023/12/23 07:27:16;;;;;;;0.30;0.30;;;;;;;;;;5003931;28;20073;-75
2023/12/23 07:29:41;;;;;;;0.20;0.20;;;;;;;;;;5001971;28;20151;-74
2023/12/23 07:32:07;;;;;;;0.20;0.20;;;;;;;;;;5016709;28;20038;-73
2023/12/23 07:34:33;;;;;;;0.30;0.20;;;;;;;;;;5013990;28;20140;-75
2023/12/23 07:36:59;;;;;;;0.40;0.20;;;;;;;;;;5018212;28;20037;-76
2023/12/23 07:39:24;;;;;;;0.30;0.30;;;;;;;;;;5015929;28;20461;-72
2023/12/23 07:41:49;;;;;;;0.55;0.30;;;;;;;;;;5014688;28;20489;-73
2023/12/23 07:44:15;;;;;;;0.10;0.10;;;;;;;;;;5006616;28;20048;-73
2023/12/23 07:46:40;;;;;;;0.25;0.20;;;;;;;;;;5013547;28;20633;-73
2023/12/23 07:49:05;;;;;;;0.15;0.15;;;;;;;;;;5017146;28;20040;-73
2023/12/23 07:51:31;;;;;;;0.17;0.17;;;;;;;;;;5016067;28;20045;-73
2023/12/23 07:53:56;;;;;;;0.20;0.17;;;;;;;;;;5018030;28;20120;-73
2023/12/23 07:56:22;;;;;;;0.28;0.25;;;;;;;;;;5016331;28;20037;-73
2023/12/23 07:58:48;;;;;;;0.43;0.40;;;;;;;;;;5004920;28;20044;-73
2023/12/23 08:01:13;;;;;;;0.30;0.30;;;;;;;;;;5016771;28;20056;-73
2023/12/23 08:03:39;;;;;;;0.47;0.32;;;;;;;;;;5016137;28;20045;-73
2023/12/23 08:06:05;;;;;;;0.75;0.30;;;;;;;;;;5016768;28;20047;-73
2023/12/23 08:08:30;;;;;;;0.30;0.30;;;;;;;;;;5016216;28;20045;-73
2023/12/23 08:10:57;;;;;;;0.15;0.15;;;;;;;;;;5012532;28;20502;-73
2023/12/23 08:13:23;;;;;;;0.10;0.10;;;;;;;;;;5003965;28;20037;-73
2023/12/23 08:15:49;;;;;;;0.40;0.40;;;;;;;;;;5014458;28;20041;-74
2023/12/23 08:18:16;;;;;;;0.32;0.20;;;;;;;;;;5019870;28;20028;-73
2023/12/23 08:20:41;;;;;;;0.30;0.30;;;;;;;;;;5017747;28;20609;-73
2023/12/23 08:23:07;;;;;;;0.35;0.30;;;;;;;;;;5016651;28;20112;-74
2023/12/23 08:25:32;;;;;;;1.33;1.23;;;;;;;;;;5014007;28;20048;-73
2023/12/23 08:27:58;;;;;;;0.93;0.60;;;;;;;;;;5009222;28;20054;-74
2023/12/23 08:30:23;;;;;;;1.10;1.00;;;;;;;;;;5013779;28;20038;-73
2023/12/23 08:32:48;;;;;;;1.00;0.85;;;;;;;;;;5019758;28;20643;-73
2023/12/23 08:35:15;;;;;;;0.60;0.60;;;;;;;;;;5020893;28;20112;-74
2023/12/23 08:37:40;;;;;;;4.70;3.47;;;;;;;;;;5012970;28;20030;-73
2023/12/23 08:40:07;;;;;;;3.08;2.08;;;;;;;;;;5004163;28;20524;-73
2023/12/23 08:42:33;;;;;;;7.05;4.78;;;;;;;;;;5014109;28;20041;-74
2023/12/23 08:44:58;;;;;;;4.95;3.58;;;;;;;;;;5019340;28;20595;-73
2023/12/23 08:47:23;;;;;;;2.42;2.00;;;;;;;;;;5014636;28;20091;-74
2023/12/23 08:49:49;;;;;;;3.35;3.00;;;;;;;;;;5017369;28;20132;-74
2023/12/23 08:52:14;;;;;;;3.15;2.10;;;;;;;;;;5016143;28;20494;-74
2023/12/23 08:54:39;;;;;;;3.08;2.67;;;;;;;;;;5005976;28;20119;-73
2023/12/23 08:57:05;;;;;;;1.70;1.60;;;;;;;;;;5016375;28;20030;-73
2023/12/23 08:59:30;;;;;;;2.25;2.05;;;;;;;;;;5010391;28;20165;-73
2023/12/23 09:01:55;;;;;;;2.83;2.38;;;;;;;;;;5009475;28;20048;-74
2023/12/23 09:04:21;;;;;;;0.90;0.70;;;;;;;;;;5015075;28;20040;-74
2023/12/23 09:06:46;;;;;;;2.05;1.20;;;;;;;;;;5006652;28;20536;-73
2023/12/23 09:09:12;;;;;;;3.10;1.20;;;;;;;;;;4997231;28;20085;-74
2023/12/23 09:11:43;;;;;;;1.35;0.70;;;;;;;;;;5012766;28;20088;-73
2023/12/23 09:14:12;;;;;;;1.52;1.10;;;;;;;;;;5011128;28;20034;-73
2023/12/23 09:16:38;;;;;;;2.88;1.88;;;;;;;;;;5010166;28;20041;-74
2023/12/23 09:19:04;;;;;;;2.75;1.83;;;;;;;;;;4994193;28;20041;-73
2023/12/23 09:21:29;;;;;;;0.93;0.90;;;;;;;;;;5008155;28;20550;-73
2023/12/23 09:23:55;;;;;;;1.17;0.60;;;;;;;;;;4999462;28;20048;-73
2023/12/23 09:26:20;;;;;;;0.73;0.73;;;;;;;;;;5010855;28;20037;-73
2023/12/23 09:28:46;;;;;;;0.82;0.82;;;;;;;;;;5004889;28;20395;-73
2023/12/23 09:31:12;;;;;;;1.10;0.80;;;;;;;;;;5014238;28;20045;-74
2023/12/23 09:33:39;;;;;;;0.77;0.50;;;;;;;;;;5006077;28;20042;-73
2023/12/23 09:36:05;;;;;;;1.60;1.10;;;;;;;;;;5013657;28;20034;-73
2023/12/23 09:38:30;;;;;;;0.30;0.30;;;;;;;;;;5001335;28;20445;-73
2023/12/23 09:40:56;;;;;;;0.30;0.30;;;;;;;;;;5016046;28;20118;-73
2023/12/23 09:43:22;;;;;;;0.80;0.80;;;;;;;;;;4988617;28;20049;-74
2023/12/23 09:45:48;;;;;;;1.77;1.00;;;;;;;;;;5014469;28;20108;-73
2023/12/23 09:48:13;;;;;;;0.85;0.80;;;;;;;;;;5018533;28;20478;-73
2023/12/23 09:50:39;;;;;;;1.55;1.10;;;;;;;;;;5018505;28;20131;-74
2023/12/23 09:53:06;;;;;;;1.17;1.08;;;;;;;;;;5004670;28;20042;-73
2023/12/23 09:55:32;;;;;;;0.98;0.80;;;;;;;;;;5002372;28;20077;-75
2023/12/23 09:57:58;;;;;;;1.80;0.60;;;;;;;;;;5008303;28;20195;-73
2023/12/23 10:00:24;;;;;;;1.20;0.60;;;;;;;;;;5017841;28;20586;-73
2023/12/23 10:02:49;;;;;;;1.52;1.00;;;;;;;;;;5019115;28;20469;-74
2023/12/23 10:05:15;;;;;;;0.70;0.70;;;;;;;;;;5004666;28;20084;-73
2023/12/23 10:07:40;;;;;;;0.75;0.75;;;;;;;;;;5019602;28;20045;-73
2023/12/23 10:10:06;;;;;;;0.50;0.50;;;;;;;;;;5016474;28;20037;-74
2023/12/23 10:12:32;;;;;;;0.90;0.80;;;;;;;;;;4999893;28;20049;-73
2023/12/23 10:14:57;;;;;;;2.80;2.35;;;;;;;;;;5013318;28;20048;-73
2023/12/23 10:17:22;;;;;;;2.15;1.95;;;;;;;;;;5015172;28;20037;-73
2023/12/23 10:19:48;;;;;;;2.17;1.30;;;;;;;;;;5001666;28;20128;-73
2023/12/23 10:22:16;;;;;;;0.47;0.47;;;;;;;;;;5019508;28;20467;-73
2023/12/23 10:24:41;;;;;;;0.30;0.30;;;;;;;;;;5017791;28;20045;-75
2023/12/23 10:27:06;;;;;;;1.15;0.60;;;;;;;;;;5004937;28;20049;-74
2023/12/23 10:29:33;;;;;;;1.52;0.90;;;;;;;;;;5021211;28;20045;-73
2023/12/23 10:32:03;;;;;;;1.80;0.40;;;;;;;;;;5009115;28;20037;-73
2023/12/23 10:34:44;;;;;;;0.20;0.20;;;;;;;;;;4989283;28;20072;-73
2023/12/23 10:37:11;;;;;;;0.10;0.10;;;;;;;;;;5001896;28;20040;-73
2023/12/23 10:39:45;;;;;;;1.63;0.50;;;;;;;;;;5012840;28;20040;-73
2023/12/23 10:42:19;;;;;;;0.57;0.47;;;;;;;;;;5013677;28;20040;-73
2023/12/23 10:44:46;;;;;;;0.57;0.40;;;;;;;;;;5008728;28;20068;-73
2023/12/23 10:47:13;;;;;;;0.30;0.20;;;;;;;;;;5016274;28;20069;-72
2023/12/23 10:49:40;;;;;;;0.60;0.40;;;;;;;;;;5009209;28;20069;-73
2023/12/23 10:52:06;;;;;;;0.22;0.20;;;;;;;;;;5004490;28;20172;-73
2023/12/23 10:54:35;;;;;;;0.50;0.50;;;;;;;;;;5018957;28;20041;-73
2023/12/23 10:57:01;;;;;;;0.40;0.40;;;;;;;;;;5023457;28;20044;-72
2023/12/23 10:59:27;;;;;;;0.40;0.40;;;;;;;;;;5011355;28;20053;-72
2023/12/23 11:01:56;;;;;;;0.22;0.22;;;;;;;;;;5021312;28;20049;-73
2023/12/23 11:04:24;;;;;;;0.20;0.20;;;;;;;;;;5019409;28;20088;-73
2023/12/23 11:06:52;;;;;;;0.20;0.20;;;;;;;;;;5004916;28;20142;-72
2023/12/23 11:09:19;;;;;;;0.30;0.30;;;;;;;;;;5014702;28;20029;-72
2023/12/23 11:11:46;;;;;;;0.63;0.28;;;;;;;;;;5008550;28;20037;-73
2023/12/23 11:14:13;;;;;;;0.20;0.20;;;;;;;;;;5020953;28;20049;-72
2023/12/23 11:16:39;;;;;;;8.65;4.55;;;;;;;;;;5013053;28;20088;-72
2023/12/23 11:19:05;;;;;;;1.77;0.70;;;;;;;;;;5012411;28;20099;-73
2023/12/23 11:21:31;;;;;;;3.67;1.58;;;;;;;;;;5008177;28;20037;-73
2023/12/23 11:23:58;;;;;;;0.60;0.60;;;;;;;;;;5016309;28;20037;-73
2023/12/23 11:26:39;;;;;;;4.82;3.95;;;;;;;;;;4988995;28;20033;-72
2023/12/23 11:29:05;;;;;;;6.05;3.83;;;;;;;;;;5021068;28;20052;-74
2023/12/23 11:31:31;;;;;;;23.38;9.77;;;;;;;;;;5018308;28;20045;-73
2023/12/23 11:33:59;;;;;;;11.60;5.13;;;;;;;;;;5020548;28;20033;-70
2023/12/23 11:36:25;;;;;;;7.65;3.38;;;;;;;;;;5016086;28;20030;-73
2023/12/23 11:38:51;;;;;;;22.63;10.57;;;;;;;;;;4990648;28;20033;-73
2023/12/23 11:41:18;;;;;;;5.38;3.15;;;;;;;;;;5004680;28;20049;-73
2023/12/23 11:43:45;;;;;;;4.65;2.10;;;;;;;;;;5023605;28;20035;-74
2023/12/23 11:46:11;;;;;;;6.60;3.72;;;;;;;;;;5020124;28;20041;-72
2023/12/23 11:48:36;;;;;;;31.52;9.55;;;;;;;;;;5023568;28;20056;-76
2023/12/23 11:51:02;;;;;;;11.88;4.50;;;;;;;;;;5001449;28;20030;-75
2023/12/23 11:53:28;;;;;;;32.03;10.45;;;;;;;;;;5002994;28;20043;-72
2023/12/23 11:55:55;;;;;;;2.08;1.00;;;;;;;;;;5025466;28;20041;-71
2023/12/23 11:58:22;;;;;;;3.97;1.77;;;;;;;;;;5025153;28;20041;-72
2023/12/23 12:00:51;;;;;;;2.03;1.33;;;;;;;;;;5013470;28;20042;-75
2023/12/23 12:03:17;;;;;;;5.72;3.67;;;;;;;;;;5019313;28;20132;-74
2023/12/23 12:05:43;;;;;;;2.83;2.22;;;;;;;;;;5009371;28;20553;-72
2023/12/23 12:08:08;;;;;;;3.75;2.30;;;;;;;;;;5023234;28;20037;-72
2023/12/23 12:10:35;;;;;;;3.67;2.08;;;;;;;;;;5021316;28;20167;-74
2023/12/23 12:13:02;;;;;;;16.98;7.13;;;;;;;;;;5004431;28;20037;-73
2023/12/23 12:15:27;;;;;;;59.28;18.88;;;;;;;;;;5021708;28;20121;-74
2023/12/23 12:17:53;;;;;;;6.43;3.25;;;;;;;;;;5015804;28;20132;-70
2023/12/23 12:20:19;;;;;;;21.75;7.05;;;;;;;;;;5002629;28;20615;-71
2023/12/23 12:22:45;;;;;;;16.00;5.43;;;;;;;;;;5015545;28;20068;-77
2023/12/23 12:25:11;;;;;;;13.02;4.82;;;;;;;;;;4989915;28;20107;-73
2023/12/23 12:27:38;;;;;;;3.13;0.85;;;;;;;;;;5003977;28;20045;-72
2023/12/23 12:30:07;;;;;;;29.80;8.70;;;;;;;;;;5015487;28;20628;-73
2023/12/23 12:32:33;;;;;;;22.13;7.05;;;;;;;;;;5017388;28;20091;-73
2023/12/23 12:35:06;;;;;;;12.48;3.85;;;;;;;;;;5011333;28;20124;-71
2023/12/23 12:37:33;;;;;;;4.82;3.03;;;;;;;;;;5015288;28;20041;-73
2023/12/23 12:39:59;;;;;;;4.22;1.63;;;;;;;;;;5009193;28;20479;-71
2023/12/23 12:42:25;;;;;;;4.15;1.52;;;;;;;;;;4991399;28;20092;-71
2023/12/23 12:44:52;;;;;;;10.05;3.30;;;;;;;;;;5023076;28;20113;-72
2023/12/23 12:47:20;;;;;;;26.38;7.75;;;;;;;;;;5008306;28;20041;-75
2023/12/23 12:49:46;;;;;;;4.57;1.75;;;;;;;;;;5006789;28;20091;-72
2023/12/23 12:52:11;;;;;;;12.90;5.88;;;;;;;;;;5016943;28;20037;-72
2023/12/23 12:54:37;;;;;;;14.93;6.63;;;;;;;;;;5023684;28;20037;-70
2023/12/23 12:57:03;;;;;;;18.77;6.65;;;;;;;;;;5022642;28;20034;-71
2023/12/23 12:59:29;;;;;;;11.02;3.35;;;;;;;;;;5019279;28;20041;-73
2023/12/23 13:01:54;;;;;;;44.47;13.43;;;;;;;;;;4996077;28;20056;-71
2023/12/23 13:04:20;;;;;;;21.52;7.30;;;;;;;;;;4994303;28;20644;-71
2023/12/23 13:06:45;;;;;;;9.98;3.88;;;;;;;;;;5012290;28;20037;-74
2023/12/23 13:09:12;;;;;;;5.95;2.97;;;;;;;;;;5018759;28;20044;-71
2023/12/23 13:11:37;;;;;;;3.67;1.40;;;;;;;;;;5016139;28;20037;-71
2023/12/23 13:14:02;;;;;;;6.30;2.22;;;;;;;;;;5013637;28;20422;-70
2023/12/23 13:16:28;;;;;;;15.13;5.10;;;;;;;;;;5006045;28;20048;-73
2023/12/23 13:18:54;;;;;;;41.13;13.93;;;;;;;;;;5018135;28;20038;-71
2023/12/23 13:21:19;;;;;;;21.55;7.30;;;;;;;;;;5014020;28;20041;-71
2023/12/23 13:23:48;;;;;;;30.33;10.40;;;;;;;;;;5008842;28;20049;-73
2023/12/23 13:26:14;;;;;;;28.38;9.20;;;;;;;;;;5000654;28;20042;-72
2023/12/23 13:28:40;;;;;;;27.05;9.35;;;;;;;;;;5002106;28;20077;-72
2023/12/23 13:31:05;;;;;;;2.65;1.52;;;;;;;;;;5012207;28;20627;-72
2023/12/23 13:33:31;;;;;;;6.38;2.70;;;;;;;;;;5014101;28;20795;-72
2023/12/23 13:35:56;;;;;;;2.38;1.30;;;;;;;;;;5010399;28;20037;-73
2023/12/23 13:38:24;;;;;;;3.08;1.40;;;;;;;;;;5014409;28;20043;-74
2023/12/23 13:40:51;;;;;;;17.83;6.50;;;;;;;;;;5009742;28;20048;-73
2023/12/23 13:43:16;;;;;;;15.95;6.18;;;;;;;;;;5005042;28;20461;-72
2023/12/23 13:45:41;;;;;;;9.93;4.32;;;;;;;;;;5012867;28;20120;-71
2023/12/23 13:48:07;;;;;;;5.10;1.58;;;;;;;;;;5006227;28;20578;-72
2023/12/23 13:50:32;;;;;;;0.93;0.68;;;;;;;;;;5018886;28;20037;-72
2023/12/23 13:52:57;;;;;;;3.05;1.25;;;;;;;;;;5010347;28;20095;-73
2023/12/23 13:55:23;;;;;;;14.07;6.35;;;;;;;;;;5010787;28;20036;-71
2023/12/23 13:57:48;;;;;;;0.52;0.50;;;;;;;;;;5008352;28;20518;-71
2023/12/23 14:00:14;;;;;;;5.22;1.95;;;;;;;;;;5021787;28;20029;-73
2023/12/23 14:02:40;;;;;;;6.43;2.95;;;;;;;;;;5002226;28;20033;-73
2023/12/23 14:05:05;;;;;;;29.27;11.43;;;;;;;;;;5012230;28;20033;-71
2023/12/23 14:07:32;;;;;;;35.83;13.20;;;;;;;;;;4997630;28;20056;-71
2023/12/23 14:09:57;;;;;;;10.30;5.75;;;;;;;;;;5013434;28;20091;-74
2023/12/23 14:12:23;;;;;;;4.28;1.40;;;;;;;;;;4990523;28;20526;-72
2023/12/23 14:14:49;;;;;;;2.65;1.70;;;;;;;;;;4997091;28;20125;-72
2023/12/23 14:17:15;;;;;;;4.47;1.75;;;;;;;;;;4990227;28;20112;-71
2023/12/23 14:19:40;;;;;;;0.80;0.50;;;;;;;;;;4996664;28;20046;-72
2023/12/23 14:22:07;;;;;;;1.85;1.40;;;;;;;;;;5000344;28;20030;-71
2023/12/23 14:24:33;;;;;;;0.65;0.50;;;;;;;;;;5007477;28;20065;-72
2023/12/23 14:27:00;;;;;;;0.95;0.77;;;;;;;;;;4986718;28;20084;-73
2023/12/23 14:29:26;;;;;;;0.80;0.80;;;;;;;;;;5017946;28;20052;-72
2023/12/23 14:31:51;;;;;;;0.90;0.80;;;;;;;;;;5023165;28;20037;-72